Time;durP1;ratioP1;P1;durP2;ratioP2;P2;SDS_P1;SDS_P2;PMS_P1;PMS_P2;Temp;Humidity;BMP_temperature;BMP_pressure;BME280_temperature;BME280_humidity;BME280_pressure;Samples;Min_cycle;Max_cycle;Signal;HPM_P1;HPM_P2
2023/08/19 00:01:15;;;;;;;5.65;3.60;;;;;;;22.80;100.00;100188.63;5026551;28;20029;-73
2023/08/19 00:03:45;;;;;;;4.28;3.38;;;;;;;22.81;100.00;100193.03;5035257;28;20033;-73
2023/08/19 00:06:33;;;;;;;4.72;3.25;;;;;;;22.84;100.00;100210.72;5012563;28;20448;-73
2023/08/19 00:09:04;;;;;;;4.75;3.30;;;;;;;22.82;100.00;100197.41;5015067;28;20042;-73
2023/08/19 00:11:34;;;;;;;3.53;3.13;;;;;;;22.77;100.00;100202.41;5024305;28;20084;-73
2023/08/19 00:14:06;;;;;;;4.13;3.47;;;;;;;22.72;100.00;100192.03;5014849;28;20557;-73
2023/08/19 00:16:35;;;;;;;5.25;3.40;;;;;;;22.72;100.00;100197.44;5024425;28;20398;-74
2023/08/19 00:19:04;;;;;;;5.50;3.28;;;;;;;22.63;100.00;100192.13;5032289;28;20705;-73
2023/08/19 00:21:32;;;;;;;3.60;3.30;;;;;;;22.60;100.00;100204.09;5006961;28;20132;-73
2023/08/19 00:24:00;;;;;;;5.68;3.28;;;;;;;22.56;100.00;100210.78;5012456;28;20049;-73
2023/08/19 00:26:30;;;;;;;5.97;3.30;;;;;;;22.54;100.00;100210.09;5014742;28;20053;-73
2023/08/19 00:28:58;;;;;;;4.88;3.10;;;;;;;22.54;100.00;100198.44;5010966;28;20057;-74
2023/08/19 00:31:28;;;;;;;3.93;3.50;;;;;;;22.53;100.00;100215.63;5006570;28;20126;-73
2023/08/19 00:33:58;;;;;;;6.05;3.42;;;;;;;22.47;100.00;100209.00;5011517;28;20636;-74
2023/08/19 00:36:26;;;;;;;5.85;3.28;;;;;;;22.43;100.00;100217.56;5030651;28;20053;-73
2023/08/19 00:39:03;;;;;;;4.00;3.22;;;;;;;22.36;100.00;100231.66;5015199;28;20073;-73
2023/08/19 00:41:32;;;;;;;4.18;3.53;;;;;;;22.29;100.00;100214.38;4994707;28;20049;-73
2023/08/19 00:44:00;;;;;;;5.40;3.15;;;;;;;22.27;100.00;100224.47;5017957;28;20626;-74
2023/08/19 00:46:32;;;;;;;7.22;3.60;;;;;;;22.22;100.00;100221.38;5030298;28;20505;-73
2023/08/19 00:49:01;;;;;;;4.32;3.53;;;;;;;22.21;100.00;100237.69;5012526;28;20525;-73
2023/08/19 00:51:30;;;;;;;6.00;3.80;;;;;;;22.19;100.00;100237.03;5005995;28;20069;-73
2023/08/19 00:53:59;;;;;;;5.75;3.78;;;;;;;22.16;100.00;100226.53;5005359;28;20049;-73
2023/08/19 00:56:27;;;;;;;6.22;3.63;;;;;;;22.13;100.00;100216.88;5032586;28;20091;-73
2023/08/19 00:58:59;;;;;;;4.18;3.50;;;;;;;22.07;100.00;100213.94;5015546;28;20041;-74
2023/08/19 01:01:27;;;;;;;4.32;3.30;;;;;;;22.09;100.00;100215.47;5027020;28;20034;-73
2023/08/19 01:03:59;;;;;;;5.32;3.20;;;;;;;22.03;100.00;100211.56;5011635;28;20061;-73
2023/08/19 01:06:35;;;;;;;5.18;3.28;;;;;;;22.01;100.00;100213.56;5028748;28;20132;-74
2023/08/19 01:09:19;;;;;;;3.95;3.17;;;;;;;21.99;100.00;100214.66;5010219;28;20042;-72
2023/08/19 01:12:03;;;;;;;5.50;3.58;;;;;;;21.98;100.00;100227.28;5025344;28;20036;-73
2023/08/19 01:14:42;;;;;;;3.63;2.97;;;;;;;21.91;100.00;100225.31;5028558;28;20045;-74
2023/08/19 01:17:14;;;;;;;5.72;3.10;;;;;;;21.90;100.00;100226.31;5011052;28;20061;-73
2023/08/19 01:19:46;;;;;;;5.65;3.60;;;;;;;21.88;100.00;100228.34;5028036;28;20073;-73
2023/08/19 01:22:22;;;;;;;5.57;3.35;;;;;;;21.93;100.00;100229.56;5023474;28;20051;-72
2023/08/19 01:24:57;;;;;;;8.20;3.38;;;;;;;21.96;100.00;100231.97;5012967;28;20076;-73
2023/08/19 01:27:27;;;;;;;5.35;3.63;;;;;;;21.99;100.00;100231.72;5014020;28;20126;-74
2023/08/19 01:29:57;;;;;;;5.10;3.80;;;;;;;21.97;100.00;100222.91;5013534;28;20068;-73
2023/08/19 01:32:28;;;;;;;4.60;3.30;;;;;;;21.94;100.00;100230.44;5006943;28;20041;-73
2023/08/19 01:34:58;;;;;;;4.00;3.40;;;;;;;21.91;100.00;100228.88;5014335;28;20096;-73
2023/08/19 01:37:35;;;;;;;7.05;3.88;;;;;;;21.85;100.00;100221.41;5013903;28;20048;-73
2023/08/19 01:40:10;;;;;;;5.10;3.30;;;;;;;21.86;100.00;100222.25;5013536;28;20596;-73
2023/08/19 01:42:43;;;;;;;6.07;3.70;;;;;;;21.80;100.00;100223.69;5010172;28;20053;-73
2023/08/19 01:45:12;;;;;;;6.10;3.72;;;;;;;21.80;100.00;100215.59;4997918;28;20517;-73
2023/08/19 01:47:42;;;;;;;4.07;3.60;;;;;;;21.75;100.00;100209.78;5014566;28;20064;-73
2023/08/19 01:50:11;;;;;;;5.97;4.00;;;;;;;21.76;100.00;100207.94;4994837;28;20042;-73
2023/08/19 01:52:42;;;;;;;5.93;3.20;;;;;;;21.76;100.00;100208.78;5021791;28;20131;-73
2023/08/19 01:55:16;;;;;;;3.67;3.38;;;;;;;21.72;100.00;100193.09;5011569;28;20061;-73
2023/08/19 01:57:45;;;;;;;6.70;3.45;;;;;;;21.80;100.00;100212.03;5004107;28;20473;-73
2023/08/19 02:00:15;;;;;;;6.70;3.42;;;;;;;21.80;100.00;100209.34;5014260;28;20092;-72
2023/08/19 02:02:47;;;;;;;5.78;3.63;;;;;;;21.74;100.00;100205.38;5024973;28;20088;-73
2023/08/19 02:05:15;;;;;;;7.35;3.60;;;;;;;21.76;100.00;100208.78;5023879;28;20041;-73
2023/08/19 02:07:43;;;;;;;6.22;3.97;;;;;;;21.72;100.00;100201.16;5008565;28;20048;-73
2023/08/19 02:10:13;;;;;;;4.00;3.60;;;;;;;21.74;100.00;100210.78;5000500;28;20056;-73
2023/08/19 02:12:45;;;;;;;4.38;3.33;;;;;;;21.75;100.00;100215.19;5013689;28;20064;-73
2023/08/19 02:15:14;;;;;;;3.92;3.17;;;;;;;21.65;100.00;100195.50;4997307;28;20045;-73
2023/08/19 02:17:44;;;;;;;8.55;3.47;;;;;;;21.72;100.00;100207.41;5002406;28;20510;-73
2023/08/19 02:20:13;;;;;;;4.30;3.38;;;;;;;21.71;100.00;100211.09;5011640;28;20045;-73
2023/08/19 02:22:42;;;;;;;4.88;3.47;;;;;;;21.73;100.00;100208.22;5023287;28;20125;-73
2023/08/19 02:25:11;;;;;;;3.45;3.15;;;;;;;21.73;100.00;100202.84;5016460;28;20053;-73
2023/08/19 02:27:41;;;;;;;3.75;3.33;;;;;;;21.77;100.00;100198.84;5042059;28;20055;-74
2023/08/19 02:30:11;;;;;;;4.40;3.80;;;;;;;21.77;100.00;100197.00;5019490;28;20132;-73
2023/08/19 02:32:39;;;;;;;4.15;3.47;;;;;;;21.84;100.00;100198.13;5034931;28;20057;-73
2023/08/19 02:35:10;;;;;;;6.68;3.25;;;;;;;21.87;100.00;100197.84;5018634;28;20072;-73
2023/08/19 02:37:38;;;;;;;5.03;3.28;;;;;;;21.91;100.00;100199.22;5017944;28;20076;-73
2023/08/19 02:40:08;;;;;;;5.55;3.05;;;;;;;21.94;100.00;100195.38;5028857;28;20442;-73
2023/08/19 02:42:48;;;;;;;5.78;3.30;;;;;;;21.94;100.00;100190.84;5036232;28;20060;-73
2023/08/19 02:45:19;;;;;;;3.75;3.13;;;;;;;21.95;100.00;100187.16;5022633;28;20096;-72
2023/08/19 02:47:47;;;;;;;3.85;3.25;;;;;;;21.95;100.00;100184.44;5021821;28;20050;-74
2023/08/19 02:50:16;;;;;;;5.90;3.10;;;;;;;21.97;100.00;100187.84;5019987;28;20431;-74
2023/08/19 02:52:45;;;;;;;3.37;2.70;;;;;;;22.00;100.00;100192.13;5020970;28;20045;-73
2023/08/19 02:55:13;;;;;;;4.22;3.15;;;;;;;21.98;100.00;100197.63;5025751;28;20072;-73
2023/08/19 02:57:49;;;;;;;4.25;3.20;;;;;;;21.97;100.00;100201.31;5037775;28;20049;-73
2023/08/19 03:00:19;;;;;;;6.65;3.10;;;;;;;22.01;100.00;100207.31;5019805;28;20135;-72
2023/08/19 03:02:48;;;;;;;3.35;2.72;;;;;;;21.98;100.00;100196.78;5006453;28;20464;-72
2023/08/19 03:05:21;;;;;;;3.70;3.13;;;;;;;21.98;100.00;100197.63;5019683;28;20054;-72
2023/08/19 03:07:49;;;;;;;3.72;3.15;;;;;;;21.92;100.00;100200.91;5000089;28;20065;-74
2023/08/19 03:10:18;;;;;;;4.63;3.60;;;;;;;21.86;100.00;100189.91;5002870;28;20053;-73
2023/08/19 03:12:50;;;;;;;5.55;3.70;;;;;;;21.87;100.00;100211.31;5026972;28;20045;-74
2023/08/19 03:15:21;;;;;;;7.05;3.40;;;;;;;21.77;100.00;100205.09;4997833;28;20504;-74
2023/08/19 03:17:50;;;;;;;4.25;3.22;;;;;;;21.72;100.00;100210.09;5010940;28;20133;-74
2023/08/19 03:20:20;;;;;;;7.97;3.53;;;;;;;21.59;100.00;100196.09;5032444;28;20072;-73
2023/08/19 03:22:48;;;;;;;5.65;3.35;;;;;;;21.64;100.00;100210.81;5006604;28;20556;-73
2023/08/19 03:25:19;;;;;;;5.72;3.50;;;;;;;21.62;100.00;100207.44;5032309;28;20041;-73
2023/08/19 03:27:53;;;;;;;4.18;2.92;;;;;;;21.61;100.00;100210.28;5017002;28;20140;-73
2023/08/19 03:30:21;;;;;;;4.00;3.05;;;;;;;21.59;100.00;100206.88;5006585;28;20042;-73
2023/08/19 03:32:52;;;;;;;4.38;3.25;;;;;;;21.56;100.00;100196.41;5006428;28;20675;-72
2023/08/19 03:35:23;;;;;;;4.43;3.85;;;;;;;21.58;100.00;100197.94;5014885;28;20041;-73
2023/08/19 03:37:53;;;;;;;4.93;3.22;;;;;;;21.52;100.00;100195.84;5017064;28;20049;-72
2023/08/19 03:40:23;;;;;;;4.80;3.47;;;;;;;21.46;100.00;100199.13;5011524;28;20055;-74
2023/08/19 03:42:53;;;;;;;3.83;3.25;;;;;;;21.39;100.00;100195.31;5006895;28;20041;-73
2023/08/19 03:45:21;;;;;;;4.65;3.50;;;;;;;21.41;100.00;100197.88;5012178;28;20050;-75
2023/08/19 03:47:49;;;;;;;4.53;3.35;;;;;;;21.38;100.00;100204.41;5011350;28;20046;-73
2023/08/19 03:50:17;;;;;;;4.13;3.50;;;;;;;21.37;100.00;100201.84;5013032;28;20042;-72
2023/08/19 03:52:45;;;;;;;4.47;3.55;;;;;;;21.22;100.00;100177.22;5022821;28;20037;-73
2023/08/19 03:55:14;;;;;;;5.47;3.45;;;;;;;21.34;100.00;100187.66;5012244;28;20081;-74
2023/08/19 03:57:42;;;;;;;3.97;3.20;;;;;;;21.45;100.00;100188.47;5012990;28;20066;-72
2023/08/19 04:00:13;;;;;;;5.57;3.45;;;;;;;21.47;100.00;100200.81;4967312;28;20106;-74
2023/08/19 04:02:41;;;;;;;;;;;;;;;21.47;100.00;100199.97;5001913;28;20054;-72
2023/08/19 04:05:11;;;;;;;6.05;3.65;;;;;;;21.49;100.00;100200.66;4992665;28;19922;-73
2023/08/19 04:07:39;;;;;;;3.67;3.30;;;;;;;21.49;100.00;100201.53;4995003;28;20050;-72
2023/08/19 04:10:12;;;;;;;4.18;3.70;;;;;;;21.48;100.00;100201.66;4994805;28;20747;-73
2023/08/19 04:12:40;;;;;;;8.45;3.72;;;;;;;21.38;100.00;100207.09;4990152;28;20042;-73
2023/08/19 04:15:12;;;;;;;5.10;3.80;;;;;;;21.30;100.00;100207.81;4994840;28;20124;-74
2023/08/19 04:17:52;;;;;;;4.60;3.60;;;;;;;21.24;100.00;100212.94;5016913;28;20042;-74
2023/08/19 04:20:21;;;;;;;6.95;4.10;;;;;;;21.19;100.00;100202.59;5010970;28;20049;-73
2023/08/19 04:22:49;;;;;;;4.10;3.67;;;;;;;21.21;100.00;100211.38;4998487;28;20104;-74
2023/08/19 04:25:18;;;;;;;5.15;3.40;;;;;;;21.21;100.00;100211.38;5014661;28;20440;-75
2023/08/19 04:27:51;;;;;;;4.38;3.78;;;;;;;21.16;100.00;100210.91;5017389;28;20042;-74
2023/08/19 04:30:29;;;;;;;4.85;3.88;;;;;;;21.18;100.00;100214.31;5013286;28;20108;-73
2023/08/19 04:32:58;;;;;;;5.93;3.55;;;;;;;21.22;100.00;100207.69;4993174;28;20038;-74
2023/08/19 04:35:31;;;;;;;6.18;3.70;;;;;;;21.25;100.00;100204.69;5022496;28;20068;-73
2023/08/19 04:37:59;;;;;;;5.95;3.70;;;;;;;21.26;100.00;100209.06;5012800;28;20092;-74
2023/08/19 04:40:27;;;;;;;4.85;3.60;;;;;;;21.28;100.00;100209.78;4979954;28;20050;-73
2023/08/19 04:43:00;;;;;;;5.22;3.88;;;;;;;21.29;100.00;100208.78;4969875;28;20158;-73
2023/08/19 04:45:29;;;;;;;6.43;4.18;;;;;;;21.27;100.00;100212.63;4993476;28;20108;-73
2023/08/19 04:47:57;;;;;;;7.13;4.17;;;;;;;21.28;100.00;100217.88;4991369;28;20074;-73
2023/08/19 04:50:26;;;;;;;5.60;3.83;;;;;;;21.32;100.00;100213.03;5009405;28;20484;-74
2023/08/19 04:52:54;;;;;;;6.30;3.90;;;;;;;21.39;100.00;100218.72;4966165;28;20053;-74
2023/08/19 04:55:23;;;;;;;4.65;3.67;;;;;;;21.42;100.00;100215.72;4983026;28;20485;-73
2023/08/19 04:57:57;;;;;;;5.22;3.72;;;;;;;21.42;100.00;100211.16;4999218;28;20387;-73
2023/08/19 05:00:31;;;;;;;7.72;3.97;;;;;;;21.42;100.00;100216.56;4997266;28;20046;-74
2023/08/19 05:03:03;;;;;;;5.72;3.97;;;;;;;21.33;100.00;100220.13;4988114;28;20429;-74
2023/08/19 05:05:33;;;;;;;4.82;3.92;;;;;;;21.26;100.00;100227.09;4995838;28;20804;-73
2023/08/19 05:08:02;;;;;;;5.88;3.90;;;;;;;21.24;100.00;100215.63;5000582;28;20053;-73
2023/08/19 05:10:33;;;;;;;5.30;3.80;;;;;;;21.27;100.00;100229.63;5000502;28;20042;-73
2023/08/19 05:13:05;;;;;;;5.60;3.85;;;;;;;21.29;100.00;100227.66;5005231;28;20113;-73
2023/08/19 05:15:39;;;;;;;7.32;4.05;;;;;;;21.32;100.00;100221.97;4997556;28;20050;-73
2023/08/19 05:18:12;;;;;;;7.00;4.20;;;;;;;21.27;100.00;100216.16;5008126;28;20133;-74
2023/08/19 05:20:41;;;;;;;5.53;3.97;;;;;;;21.39;100.00;100227.66;4976035;28;20042;-74
2023/08/19 05:23:13;;;;;;;6.15;4.97;;;;;;;21.40;100.00;100233.88;4986986;28;20053;-73
2023/08/19 05:25:43;;;;;;;5.75;4.38;;;;;;;21.39;100.00;100229.50;4995927;28;20046;-73
2023/08/19 05:28:11;;;;;;;;;;;;;;;21.42;100.00;100242.66;4996768;28;20169;-73
2023/08/19 05:30:40;;;;;;;5.78;3.53;;;;;;;21.45;100.00;100242.34;4992639;28;20401;-74
2023/08/19 05:33:09;;;;;;;8.00;4.13;;;;;;;21.53;100.00;100240.66;4988787;28;20048;-74
2023/08/19 05:35:40;;;;;;;4.78;3.58;;;;;;;21.58;100.00;100248.28;5011919;28;20576;-74
2023/08/19 05:38:09;;;;;;;6.38;3.80;;;;;;;21.49;100.00;100223.06;4994316;28;20053;-74
2023/08/19 05:40:40;;;;;;;;;;;;;;;21.67;100.00;100237.50;5017143;28;20072;-74
2023/08/19 05:43:13;;;;;;;5.07;3.50;;;;;;;21.70;100.00;100245.28;5005600;28;19929;-73
2023/08/19 05:45:47;;;;;;;6.20;4.22;;;;;;;21.81;100.00;100249.63;5017100;28;20113;-73
2023/08/19 05:48:17;;;;;;;5.43;3.97;;;;;;;21.91;100.00;100255.84;4999728;28;20050;-73
2023/08/19 05:50:50;;;;;;;;;;;;;;;22.00;100.00;100257.69;4991230;28;20042;-74
2023/08/19 05:53:21;;;;;;;6.38;3.72;;;;;;;22.04;100.00;100248.28;4989123;28;19925;-73
2023/08/19 05:55:49;;;;;;;6.63;3.83;;;;;;;22.14;100.00;100258.19;5002990;28;20132;-75
2023/08/19 05:58:18;;;;;;;4.65;4.07;;;;;;;22.21;100.00;100264.66;5014867;28;20073;-73
2023/08/19 06:00:47;;;;;;;5.18;3.92;;;;;;;22.29;100.00;100265.63;5013087;28;20042;-74
2023/08/19 06:03:16;;;;;;;6.70;3.93;;;;;;;22.36;100.00;100261.31;4992935;28;20052;-74
2023/08/19 06:05:46;;;;;;;3.88;3.58;;;;;;;22.46;100.00;100265.81;4993414;28;20050;-73
2023/08/19 06:08:14;;;;;;;5.47;3.70;;;;;;;22.46;100.00;100261.28;4994348;28;20053;-74
2023/08/19 06:10:44;;;;;;;4.68;4.18;;;;;;;22.55;100.00;100270.31;5016422;28;20042;-73
2023/08/19 06:13:12;;;;;;;5.25;3.65;;;;;;;22.58;100.00;100265.47;4989953;28;20104;-73
2023/08/19 06:15:43;;;;;;;4.47;3.63;;;;;;;22.63;100.00;100263.16;4985043;28;20145;-73
2023/08/19 06:18:18;;;;;;;5.45;3.47;;;;;;;22.74;100.00;100270.19;4996215;28;20077;-73
2023/08/19 06:20:49;;;;;;;6.38;3.65;;;;;;;22.86;100.00;100274.38;4976044;28;20509;-72
2023/08/19 06:23:17;;;;;;;4.88;3.88;;;;;;;23.02;100.00;100274.53;4991693;28;20533;-74
2023/08/19 06:25:50;;;;;;;3.88;3.40;;;;;;;23.26;100.00;100273.91;4996802;28;20049;-73
2023/08/19 06:28:23;;;;;;;4.75;3.80;;;;;;;23.47;100.00;100278.97;4994163;28;20088;-74
2023/08/19 06:30:51;;;;;;;5.25;3.60;;;;;;;23.74;100.00;100286.13;5006104;28;20084;-73
2023/08/19 06:33:22;;;;;;;7.28;3.63;;;;;;;23.94;100.00;100287.56;5013890;28;20026;-74
2023/08/19 06:35:52;;;;;;;5.72;3.17;;;;;;;24.18;100.00;100295.00;5000049;28;20042;-74
2023/08/19 06:38:24;;;;;;;3.90;3.50;;;;;;;24.28;100.00;100297.59;5021196;28;20070;-73
2023/08/19 06:40:57;;;;;;;4.72;3.35;;;;;;;24.37;100.00;100299.34;4997966;28;20038;-73
2023/08/19 06:43:27;;;;;;;6.55;3.45;;;;;;;24.52;100.00;100308.53;4993051;28;20057;-74
2023/08/19 06:45:57;;;;;;;4.78;3.60;;;;;;;24.78;100.00;100287.63;4990141;28;20056;-74
2023/08/19 06:48:28;;;;;;;8.00;3.67;;;;;;;25.29;100.00;100315.50;5013026;28;20058;-73
2023/08/19 06:50:57;;;;;;;4.35;3.80;;;;;;;25.62;100.00;100310.09;4994653;28;20054;-73
2023/08/19 06:53:25;;;;;;;6.53;3.20;;;;;;;25.97;100.00;100309.72;4991611;28;20057;-74
2023/08/19 06:56:07;;;;;;;5.35;3.55;;;;;;;26.39;100.00;100316.72;4975816;28;20045;-73
2023/08/19 06:58:41;;;;;;;5.63;3.45;;;;;;;26.69;100.00;100313.19;5013919;28;20046;-73
2023/08/19 07:01:17;;;;;;;4.35;3.38;;;;;;;26.90;97.09;100307.97;5010213;28;20050;-74
2023/08/19 07:03:50;;;;;;;4.72;3.28;;;;;;;27.25;92.34;100308.41;4974728;28;20073;-74
2023/08/19 07:06:22;;;;;;;4.72;3.30;;;;;;;27.37;94.68;100287.09;4996713;28;20046;-73
2023/08/19 07:08:51;;;;;;;4.95;3.33;;;;;;;27.31;91.45;100282.38;4997465;28;20129;-74
2023/08/19 07:11:19;;;;;;;4.55;3.50;;;;;;;27.21;89.72;100291.66;4994274;28;20042;-75
2023/08/19 07:13:52;;;;;;;4.93;3.35;;;;;;;27.05;89.58;100296.34;4989319;28;20065;-74
2023/08/19 07:16:23;;;;;;;5.45;3.75;;;;;;;26.85;91.32;100299.50;5001194;28;20120;-73
2023/08/19 07:18:59;;;;;;;4.43;3.30;;;;;;;26.64;92.99;100304.72;4996019;28;20074;-73
2023/08/19 07:21:29;;;;;;;4.05;3.20;;;;;;;26.43;94.59;100305.34;4998411;28;20034;-74
2023/08/19 07:23:59;;;;;;;;;;;;;;;26.39;95.12;100316.72;4982031;28;20070;-75
2023/08/19 07:26:27;;;;;;;4.13;3.70;;;;;;;26.27;96.36;100305.38;5017999;28;19968;-73
2023/08/19 07:28:56;;;;;;;3.90;3.30;;;;;;;26.20;96.02;100316.06;5000768;28;20494;-73
2023/08/19 07:31:27;;;;;;;5.75;3.33;;;;;;;26.24;95.85;100321.16;5012158;28;20049;-73
2023/08/19 07:34:03;;;;;;;4.00;3.60;;;;;;;26.04;95.78;100310.69;4993451;28;20053;-74
2023/08/19 07:36:31;;;;;;;4.50;3.60;;;;;;;26.12;95.87;100320.69;4995235;28;20061;-75
2023/08/19 07:38:59;;;;;;;4.57;3.28;;;;;;;26.43;95.71;100316.19;5011195;28;20477;-73
2023/08/19 07:41:28;;;;;;;5.25;3.40;;;;;;;26.85;91.84;100306.81;4993349;28;20050;-74
2023/08/19 07:43:56;;;;;;;6.50;3.58;;;;;;;27.31;86.08;100310.44;5009316;28;20042;-74
2023/08/19 07:46:25;;;;;;;5.82;3.90;;;;;;;27.75;86.38;100302.41;4992631;28;20068;-73
2023/08/19 07:48:53;;;;;;;3.87;3.30;;;;;;;28.13;79.60;100303.19;5013379;28;20053;-73
2023/08/19 07:51:23;;;;;;;4.07;3.60;;;;;;;28.10;82.77;100319.91;5009464;28;20502;-73
2023/08/19 07:53:53;;;;;;;;;;;;;;;27.93;82.04;100332.84;4996026;28;20050;-72
2023/08/19 07:56:23;;;;;;;5.75;3.90;;;;;;;27.94;83.91;100329.09;4995172;28;19941;-73
2023/08/19 07:58:51;;;;;;;7.43;3.85;;;;;;;27.77;83.15;100332.16;4997887;28;20481;-73
2023/08/19 08:01:19;;;;;;;5.28;3.80;;;;;;;27.71;90.44;100341.03;4978725;28;20418;-73
2023/08/19 08:03:59;;;;;;;8.40;3.33;;;;;;;27.57;91.12;100346.25;4992274;28;20045;-73
2023/08/19 08:06:31;;;;;;;6.65;3.38;;;;;;;27.33;93.70;100335.56;5009525;28;20104;-74
2023/08/19 08:08:59;;;;;;;5.63;3.60;;;;;;;27.24;92.86;100342.91;4992836;28;20077;-73
2023/08/19 08:11:28;;;;;;;6.43;3.53;;;;;;;27.31;93.74;100342.22;4998199;28;20042;-74
2023/08/19 08:13:57;;;;;;;6.80;3.85;;;;;;;27.43;91.89;100338.03;4985113;28;20098;-74
2023/08/19 08:16:29;;;;;;;6.10;3.47;;;;;;;27.52;96.67;100336.94;5014635;28;20050;-75
2023/08/19 08:18:57;;;;;;;8.45;4.05;;;;;;;27.75;92.86;100326.91;4980778;28;20497;-74
2023/08/19 08:21:27;;;;;;;4.63;3.60;;;;;;;27.75;89.37;100321.44;5010675;28;20048;-74
2023/08/19 08:23:58;;;;;;;7.60;3.78;;;;;;;27.91;89.51;100320.44;4972542;28;20122;-74
2023/08/19 08:26:28;;;;;;;5.28;3.40;;;;;;;28.04;89.23;100319.78;4991251;28;20113;-74
2023/08/19 08:28:58;;;;;;;6.95;4.13;;;;;;;28.10;89.61;100329.94;5013700;28;20422;-73
2023/08/19 08:31:27;;;;;;;7.85;4.00;;;;;;;28.16;86.42;100312.88;4990323;28;20046;-73
2023/08/19 08:33:55;;;;;;;9.50;3.80;;;;;;;28.57;77.49;100313.25;4989796;28;20092;-74
2023/08/19 08:36:23;;;;;;;4.50;3.83;;;;;;;28.85;77.36;100325.13;5007615;28;20106;-75
2023/08/19 08:38:53;;;;;;;6.70;4.17;;;;;;;28.94;76.14;100326.72;5012353;28;20054;-73
2023/08/19 08:41:23;;;;;;;6.97;3.92;;;;;;;29.07;71.14;100317.84;4991936;28;20109;-73
2023/08/19 08:43:56;;;;;;;6.35;3.70;;;;;;;29.31;71.01;100325.63;4961669;28;20045;-74
2023/08/19 08:46:27;;;;;;;7.32;3.90;;;;;;;29.59;67.19;100322.16;5009170;28;20064;-73
2023/08/19 08:48:56;;;;;;;6.13;4.35;;;;;;;29.73;67.06;100318.50;5013011;28;20576;-73
2023/08/19 08:51:29;;;;;;;7.13;3.80;;;;;;;29.66;66.40;100329.34;4992607;28;20049;-74
2023/08/19 08:53:58;;;;;;;8.68;3.80;;;;;;;29.58;67.48;100332.22;5006415;28;20058;-74
2023/08/19 08:56:30;;;;;;;5.55;4.03;;;;;;;29.56;68.63;100320.66;4991491;28;20054;-74
2023/08/19 08:58:59;;;;;;;4.40;3.80;;;;;;;29.51;66.11;100325.00;4978011;28;20429;-73
2023/08/19 09:01:28;;;;;;;6.22;3.78;;;;;;;29.43;67.29;100323.28;4992366;28;20046;-73
2023/08/19 09:04:03;;;;;;;8.40;3.60;;;;;;;29.37;69.52;100334.94;4994179;28;20156;-73
2023/08/19 09:06:35;;;;;;;5.45;3.78;;;;;;;29.46;70.12;100339.22;5008881;28;20073;-73
2023/08/19 09:09:20;;;;;;;6.53;3.95;;;;;;;29.39;70.86;100332.88;5011491;28;20660;-73
2023/08/19 09:11:55;;;;;;;5.22;3.80;;;;;;;29.64;68.21;100327.84;4977147;28;20078;-73
2023/08/19 09:14:36;;;;;;;5.55;3.33;;;;;;;30.00;69.44;100322.28;5009644;28;20076;-74
2023/08/19 09:17:06;;;;;;;5.45;3.50;;;;;;;30.37;59.77;100331.13;5011040;28;20056;-73
2023/08/19 09:19:35;;;;;;;4.80;3.60;;;;;;;30.61;59.14;100338.84;5016042;28;20486;-74
2023/08/19 09:22:23;;;;;;;6.97;3.67;;;;;;;30.67;58.36;100321.63;4992969;28;20100;-73
2023/08/19 09:24:53;;;;;;;5.00;3.05;;;;;;;30.47;55.98;100321.50;4986408;28;20455;-74
2023/08/19 09:27:27;;;;;;;4.72;3.15;;;;;;;30.32;56.49;100321.63;4989773;28;20049;-73
2023/08/19 09:29:56;;;;;;;5.32;4.13;;;;;;;30.17;57.79;100306.44;5017181;28;20069;-73
2023/08/19 09:32:29;;;;;;;7.88;4.00;;;;;;;29.87;57.69;100322.16;5015077;28;20042;-75
2023/08/19 09:35:05;;;;;;;5.50;3.70;;;;;;;29.81;61.60;100304.69;4992123;28;20050;-73
2023/08/19 09:37:34;;;;;;;6.32;3.40;;;;;;;30.09;60.08;100317.50;5009891;28;20052;-73
2023/08/19 09:40:07;;;;;;;8.20;3.90;;;;;;;30.34;59.56;100319.56;4996265;28;20053;-73
2023/08/19 09:42:39;;;;;;;5.88;3.83;;;;;;;30.63;61.05;100323.91;4977078;28;20052;-74
2023/08/19 09:45:09;;;;;;;6.55;3.55;;;;;;;30.89;60.67;100312.22;4970502;28;20112;-74
2023/08/19 09:47:48;;;;;;;5.65;3.70;;;;;;;31.08;58.52;100307.84;4996505;28;21228;-74
2023/08/19 09:50:16;;;;;;;3.83;3.40;;;;;;;31.19;57.05;100314.63;4994665;28;20061;-74
2023/08/19 09:52:53;;;;;;;6.05;4.10;;;;;;;31.25;54.89;100319.28;5016343;28;20038;-74
2023/08/19 09:55:26;;;;;;;4.32;3.63;;;;;;;31.32;53.98;100311.94;4987950;28;20050;-74
2023/08/19 09:57:59;;;;;;;4.07;3.67;;;;;;;31.34;54.32;100307.94;5007569;28;20068;-74
2023/08/19 10:00:30;;;;;;;6.85;4.00;;;;;;;31.33;55.51;100306.22;5006267;28;20050;-74
2023/08/19 10:02:59;;;;;;;5.45;3.72;;;;;;;31.27;57.65;100298.03;5006260;28;20045;-74
2023/08/19 10:05:27;;;;;;;5.75;3.90;;;;;;;31.26;56.76;100313.63;5002070;28;20054;-74
2023/08/19 10:08:00;;;;;;;5.28;3.72;;;;;;;31.12;57.01;100325.59;5011288;28;20125;-74
2023/08/19 10:10:32;;;;;;;5.10;3.95;;;;;;;30.91;59.75;100323.81;4980256;28;20050;-74
2023/08/19 10:13:04;;;;;;;5.75;3.60;;;;;;;30.77;60.28;100316.63;5007043;28;20046;-74
2023/08/19 10:15:37;;;;;;;4.65;3.90;;;;;;;30.74;60.66;100322.47;4990077;28;20038;-75
2023/08/19 10:18:10;;;;;;;6.53;3.67;;;;;;;30.61;60.96;100330.63;5016716;28;20061;-74
2023/08/19 10:20:54;;;;;;;7.80;4.50;;;;;;;30.50;63.92;100340.22;4999091;28;20065;-74
2023/08/19 10:23:23;;;;;;;7.07;4.22;;;;;;;30.26;63.75;100333.34;5016853;28;20050;-74
2023/08/19 10:25:52;;;;;;;6.45;4.45;;;;;;;30.23;64.09;100344.69;5003430;28;20177;-74
2023/08/19 10:28:27;;;;;;;5.68;4.47;;;;;;;30.05;66.16;100346.25;4999313;28;20050;-75
2023/08/19 10:31:05;;;;;;;5.50;3.95;;;;;;;29.90;66.35;100340.88;4998722;28;20113;-73
2023/08/19 10:33:37;;;;;;;5.00;4.22;;;;;;;29.87;67.95;100333.09;5031083;28;20046;-75
2023/08/19 10:36:07;;;;;;;6.63;4.43;;;;;;;30.16;67.71;100334.78;5020600;28;20046;-74
2023/08/19 10:38:44;;;;;;;7.22;4.75;;;;;;;30.32;63.74;100345.38;4997371;28;20096;-73
2023/08/19 10:41:29;;;;;;;5.20;3.97;;;;;;;30.34;63.77;100338.69;4993729;28;20426;-73
2023/08/19 10:44:01;;;;;;;4.50;3.70;;;;;;;30.60;62.23;100338.00;4999547;28;20070;-73
2023/08/19 10:46:34;;;;;;;7.15;4.43;;;;;;;30.78;62.25;100333.84;5012807;28;20041;-73
2023/08/19 10:49:07;;;;;;;5.53;3.75;;;;;;;30.71;62.49;100322.88;5013000;28;20446;-73
2023/08/19 10:52:00;;;;;;;8.05;4.00;;;;;;;31.03;62.29;100327.63;4996479;28;20056;-73
2023/08/19 10:54:35;;;;;;;6.15;3.83;;;;;;;31.35;61.53;100336.13;4995787;28;20045;-75
2023/08/19 10:57:21;;;;;;;6.22;4.25;;;;;;;31.47;60.17;100339.97;5007787;28;20694;-73
2023/08/19 10:59:56;;;;;;;5.65;3.97;;;;;;;31.19;60.70;100347.47;4999617;28;20073;-73
2023/08/19 11:02:25;;;;;;;7.72;5.53;;;;;;;31.08;62.84;100343.41;5024581;28;20060;-73
2023/08/19 11:04:55;;;;;;;6.70;4.50;;;;;;;30.87;60.63;100346.28;5011102;28;20719;-74
2023/08/19 11:07:23;;;;;;;5.82;4.22;;;;;;;30.94;61.80;100334.34;4989178;28;20042;-74
2023/08/19 11:09:54;;;;;;;8.13;4.00;;;;;;;31.31;59.26;100359.50;4996406;28;20042;-74
2023/08/19 11:12:23;;;;;;;6.93;4.28;;;;;;;31.11;59.87;100348.50;4996592;28;20462;-74
2023/08/19 11:14:56;;;;;;;10.30;4.68;;;;;;;31.14;60.35;100361.78;4995172;28;20060;-74
2023/08/19 11:17:30;;;;;;;6.68;4.85;;;;;;;31.08;60.25;100342.56;5007986;28;20048;-75
2023/08/19 11:20:10;;;;;;;7.78;4.45;;;;;;;31.40;58.19;100352.78;5001530;28;20097;-74
2023/08/19 11:22:42;;;;;;;4.60;3.80;;;;;;;31.33;58.17;100354.66;4997929;28;20054;-73
2023/08/19 11:25:12;;;;;;;5.10;3.50;;;;;;;31.45;59.49;100352.16;4993855;28;20074;-73
2023/08/19 11:27:42;;;;;;;6.78;3.85;;;;;;;31.60;59.12;100356.38;4975833;28;20069;-74
2023/08/19 11:30:19;;;;;;;6.80;4.15;;;;;;;31.56;59.18;100338.69;5010776;28;20060;-73
2023/08/19 11:32:47;;;;;;;5.50;4.30;;;;;;;31.62;56.19;100370.72;5010715;28;20054;-75
2023/08/19 11:35:15;;;;;;;7.38;4.03;;;;;;;31.22;57.57;100374.41;4993627;28;20054;-73
2023/08/19 11:37:45;;;;;;;5.70;4.03;;;;;;;30.84;59.87;100377.63;5008358;28;20042;-74
2023/08/19 11:40:14;;;;;;;5.57;3.90;;;;;;;30.88;61.18;100380.78;4999677;28;20050;-74